createdAt,value
2022-12-09T00:01:10.781Z,4.73
2022-12-09T00:03:39.222Z,7.87
2022-12-09T00:06:09.172Z,5.47
2022-12-09T00:08:38.920Z,6.50
2022-12-09T00:11:07.895Z,5.73
2022-12-09T00:13:36.197Z,5.57
2022-12-09T00:16:07.457Z,6.10
2022-12-09T00:18:35.872Z,5.77
2022-12-09T00:21:13.428Z,7.93
2022-12-09T00:23:42.918Z,5.87
2022-12-09T00:26:11.226Z,7.87
2022-12-09T00:28:39.675Z,6.47
2022-12-09T00:31:08.036Z,6.80
2022-12-09T00:33:36.673Z,7.77
2022-12-09T00:36:06.749Z,6.47
2022-12-09T00:38:34.783Z,8.33
2022-12-09T00:41:04.475Z,8.50
2022-12-09T00:43:33.056Z,5.57
2022-12-09T00:46:01.003Z,7.63
2022-12-09T00:48:29.406Z,5.87
2022-12-09T00:50:57.367Z,5.37
2022-12-09T00:53:25.455Z,7.27
2022-12-09T00:55:53.695Z,5.57
2022-12-09T00:58:23.069Z,5.80
2022-12-09T01:00:51.345Z,6.27
2022-12-09T01:03:20.191Z,9.37
2022-12-09T01:05:48.380Z,6.03
2022-12-09T01:08:16.647Z,7.03
2022-12-09T01:10:45.880Z,5.50
2022-12-09T01:13:15.476Z,5.83
2022-12-09T01:15:45.465Z,8.63
2022-12-09T01:18:15.359Z,5.53
2022-12-09T01:20:43.423Z,5.83
2022-12-09T01:23:11.499Z,6.97
2022-12-09T01:25:39.997Z,6.63
2022-12-09T01:28:07.863Z,7.60
2022-12-09T01:30:36.005Z,6.83
2022-12-09T01:33:05.544Z,4.93
2022-12-09T01:35:33.531Z,5.50
2022-12-09T01:38:02.053Z,7.60
2022-12-09T01:40:30.023Z,7.17
2022-12-09T01:42:57.912Z,5.67
2022-12-09T01:45:49.871Z,5.07
2022-12-09T01:48:21.934Z,9.93
2022-12-09T01:50:53.763Z,6.70
2022-12-09T01:53:25.642Z,9.97
2022-12-09T01:55:55.493Z,6.37
2022-12-09T01:58:24.640Z,6.47
2022-12-09T02:00:52.724Z,5.87
2022-12-09T02:03:22.326Z,9.53
2022-12-09T02:05:50.477Z,5.90
2022-12-09T02:08:20.231Z,7.47
2022-12-09T02:10:55.219Z,4.40
2022-12-09T02:13:29.333Z,6.93
2022-12-09T02:16:01.014Z,9.17
2022-12-09T02:18:37.960Z,6.03
2022-12-09T02:21:11.223Z,7.00
2022-12-09T02:23:42.493Z,5.83
2022-12-09T02:26:22.137Z,6.13
2022-12-09T02:29:17.718Z,5.07
2022-12-09T02:32:02.612Z,6.77
2022-12-09T02:34:34.728Z,8.10
2022-12-09T02:37:10.808Z,6.27
2022-12-09T02:39:44.987Z,5.07
2022-12-09T02:42:18.103Z,5.73
2022-12-09T02:44:49.473Z,5.77
2022-12-09T02:47:21.229Z,6.97
2022-12-09T02:49:55.820Z,6.93
2022-12-09T02:52:24.762Z,5.13
2022-12-09T02:54:53.553Z,7.40
2022-12-09T02:57:25.541Z,5.70
2022-12-09T02:59:53.867Z,6.70
2022-12-09T03:02:28.425Z,5.20
2022-12-09T03:05:10.300Z,7.37
2022-12-09T03:07:43.218Z,3.47
2022-12-09T03:10:17.165Z,4.63
2022-12-09T03:12:51.301Z,4.97
2022-12-09T03:15:25.836Z,6.53
2022-12-09T03:17:58.517Z,6.53
2022-12-09T03:20:31.007Z,4.50
2022-12-09T03:23:05.726Z,4.23
2022-12-09T03:25:39.744Z,6.50
2022-12-09T03:28:11.581Z,5.93
2022-12-09T03:30:42.630Z,7.97
2022-12-09T03:33:12.876Z,6.70
2022-12-09T03:35:45.767Z,7.13
2022-12-09T03:38:17.981Z,7.17
2022-12-09T03:40:47.770Z,6.43
2022-12-09T03:43:20.929Z,6.87
2022-12-09T03:45:49.614Z,7.17
2022-12-09T03:48:17.859Z,4.87
2022-12-09T03:50:53.071Z,4.53
2022-12-09T03:53:27.011Z,5.97
2022-12-09T03:56:00.621Z,8.47
2022-12-09T03:58:29.574Z,7.40
2022-12-09T04:00:57.670Z,6.33
2022-12-09T04:03:25.944Z,5.13
2022-12-09T04:05:55.330Z,5.30
2022-12-09T04:08:23.390Z,7.50
2022-12-09T04:10:51.469Z,6.07
2022-12-09T04:13:19.782Z,6.03
2022-12-09T04:15:48.245Z,6.40
2022-12-09T04:18:16.355Z,5.67
2022-12-09T04:20:44.584Z,13.00
2022-12-09T04:23:14.016Z,5.07
2022-12-09T04:25:42.274Z,5.50
2022-12-09T04:28:10.384Z,5.40
2022-12-09T04:30:38.554Z,6.17
2022-12-09T04:33:06.805Z,5.17
2022-12-09T04:35:34.877Z,6.87
2022-12-09T04:38:02.832Z,5.80
2022-12-09T04:40:32.584Z,7.03
2022-12-09T04:43:00.533Z,6.13
2022-12-09T04:45:28.632Z,6.93
2022-12-09T04:47:56.672Z,4.67
2022-12-09T04:50:24.611Z,7.70
2022-12-09T04:52:52.791Z,8.87
2022-12-09T04:55:20.671Z,5.57
2022-12-09T04:57:50.018Z,6.07
2022-12-09T05:00:19.614Z,8.67
2022-12-09T05:02:47.711Z,6.27
2022-12-09T05:05:15.948Z,5.67
2022-12-09T05:07:44.372Z,9.20
2022-12-09T05:10:13.595Z,4.97
2022-12-09T05:12:42.604Z,7.57
2022-12-09T05:15:12.672Z,12.90
2022-12-09T05:17:40.891Z,77.03
2022-12-09T05:20:10.120Z,23.20
2022-12-09T05:22:38.571Z,10.13
2022-12-09T05:25:07.354Z,7.27
2022-12-09T05:27:35.532Z,6.17
2022-12-09T05:30:03.736Z,8.23
2022-12-09T05:32:33.609Z,6.17
2022-12-09T05:35:01.993Z,6.13
2022-12-09T05:37:30.260Z,7.43
2022-12-09T05:39:58.298Z,6.20
2022-12-09T05:42:26.410Z,9.47
2022-12-09T05:44:54.810Z,7.30
2022-12-09T05:47:22.811Z,6.33
2022-12-09T05:49:52.660Z,9.90
2022-12-09T05:52:20.683Z,48.83
2022-12-09T05:54:49.184Z,20.10
2022-12-09T05:57:17.232Z,10.47
2022-12-09T05:59:45.931Z,8.13
2022-12-09T06:02:14.021Z,8.73
2022-12-09T06:04:42.151Z,6.20
2022-12-09T06:07:12.114Z,9.97
2022-12-09T06:09:40.320Z,12.77
2022-12-09T06:12:08.983Z,7.20
2022-12-09T06:14:37.103Z,8.73
2022-12-09T06:17:05.479Z,7.97
2022-12-09T06:19:33.609Z,6.63
2022-12-09T06:22:02.017Z,9.10
2022-12-09T06:24:31.476Z,6.50
2022-12-09T06:26:59.713Z,7.23
2022-12-09T06:29:27.733Z,6.20
2022-12-09T06:31:55.758Z,7.43
2022-12-09T06:34:24.605Z,9.00
2022-12-09T06:36:52.642Z,8.63
2022-12-09T06:39:21.115Z,69.93
2022-12-09T06:41:50.444Z,60.57
2022-12-09T06:44:23.462Z,13.23
2022-12-09T06:46:52.357Z,7.37
2022-12-09T06:49:20.885Z,8.00
2022-12-09T06:51:49.334Z,10.10
2022-12-09T06:54:18.073Z,8.37
2022-12-09T06:56:46.180Z,8.97
2022-12-09T06:59:16.140Z,8.00
2022-12-09T07:01:45.805Z,9.20
2022-12-09T07:04:15.736Z,7.97
2022-12-09T07:06:46.080Z,8.20
2022-12-09T07:09:16.770Z,8.60
2022-12-09T07:11:46.314Z,8.00
2022-12-09T07:14:17.008Z,7.33
2022-12-09T07:16:45.542Z,7.47
2022-12-09T07:19:19.001Z,10.73
2022-12-09T07:21:47.904Z,7.93
2022-12-09T07:24:16.686Z,11.93
2022-12-09T07:26:44.739Z,10.60
2022-12-09T07:29:13.437Z,13.70
2022-12-09T07:31:43.103Z,17.83
2022-12-09T07:34:12.731Z,19.90
2022-12-09T07:36:40.827Z,11.00
2022-12-09T07:39:16.337Z,29.87
2022-12-09T07:41:44.687Z,14.77
2022-12-09T07:44:13.451Z,10.13
2022-12-09T07:46:43.031Z,10.73
2022-12-09T07:49:12.832Z,7.93
2022-12-09T07:51:41.442Z,9.00
2022-12-09T07:54:12.369Z,9.47
2022-12-09T07:56:40.926Z,9.17
2022-12-09T07:59:09.729Z,9.23
2022-12-09T08:01:38.529Z,14.00
2022-12-09T08:04:09.213Z,12.27
2022-12-09T08:06:38.048Z,13.23
2022-12-09T08:09:08.151Z,31.40
2022-12-09T08:11:36.773Z,10.63
2022-12-09T08:14:12.257Z,11.37
2022-12-09T08:16:41.590Z,11.40
2022-12-09T08:19:12.159Z,9.43
2022-12-09T08:21:41.890Z,13.30
2022-12-09T08:24:15.266Z,9.73
2022-12-09T08:26:43.457Z,10.97
2022-12-09T08:29:14.239Z,11.50
2022-12-09T08:31:44.057Z,12.47
2022-12-09T08:34:14.554Z,12.03
2022-12-09T08:36:43.431Z,11.43
2022-12-09T08:39:13.148Z,14.73
2022-12-09T08:41:41.865Z,14.80
2022-12-09T08:44:12.154Z,10.07
2022-12-09T08:46:42.052Z,11.97
2022-12-09T08:49:11.157Z,13.20
2022-12-09T08:51:41.398Z,24.10
2022-12-09T08:54:09.873Z,27.00
2022-12-09T08:56:38.124Z,25.77
2022-12-09T08:59:06.735Z,14.13
2022-12-09T09:01:36.396Z,17.67
2022-12-09T09:04:06.651Z,19.60
2022-12-09T09:06:35.510Z,14.03
2022-12-09T09:09:05.819Z,15.83
2022-12-09T09:11:34.417Z,15.47
2022-12-09T09:14:05.667Z,15.40
2022-12-09T09:16:34.810Z,12.20
2022-12-09T09:19:05.839Z,11.77
2022-12-09T09:21:35.749Z,16.87
2022-12-09T09:24:10.284Z,18.93
2022-12-09T09:26:41.614Z,13.03
2022-12-09T09:29:11.839Z,12.73
2022-12-09T09:31:40.147Z,18.57
2022-12-09T09:34:08.528Z,14.57
2022-12-09T09:36:37.047Z,12.93
2022-12-09T09:39:07.124Z,15.17
2022-12-09T09:41:45.335Z,13.07
2022-12-09T09:44:22.520Z,13.50
2022-12-09T09:46:52.711Z,26.17
2022-12-09T09:49:29.778Z,14.73
2022-12-09T09:51:58.497Z,15.23
2022-12-09T09:54:28.075Z,11.93
2022-12-09T09:57:00.910Z,13.30
2022-12-09T09:59:50.039Z,14.93
2022-12-09T10:02:20.959Z,14.53
2022-12-09T10:05:00.200Z,12.93
2022-12-09T10:07:36.567Z,11.57
2022-12-09T10:10:17.803Z,14.80
2022-12-09T10:13:06.123Z,17.63
2022-12-09T10:15:49.656Z,12.17
2022-12-09T10:18:22.699Z,12.47
2022-12-09T10:20:51.351Z,13.53
2022-12-09T10:23:20.211Z,13.10
2022-12-09T10:25:54.051Z,13.50
2022-12-09T10:28:24.094Z,16.67
2022-12-09T10:30:53.567Z,14.23
2022-12-09T10:33:27.816Z,11.50
2022-12-09T10:35:56.284Z,12.53
2022-12-09T10:38:26.217Z,13.43
2022-12-09T10:41:02.916Z,15.90
2022-12-09T10:43:39.017Z,17.47
2022-12-09T10:46:19.524Z,15.30
2022-12-09T10:48:56.040Z,14.90
2022-12-09T10:51:26.985Z,14.77
2022-12-09T10:53:58.018Z,18.77
2022-12-09T10:56:30.696Z,12.57
2022-12-09T10:59:11.596Z,17.30
2022-12-09T11:01:51.746Z,20.70
2022-12-09T11:04:25.164Z,15.33
2022-12-09T11:06:59.362Z,23.93
2022-12-09T11:09:31.017Z,21.03
2022-12-09T11:12:01.989Z,19.30
2022-12-09T11:14:36.744Z,14.57
2022-12-09T11:17:17.835Z,14.23
2022-12-09T11:19:50.753Z,16.77
2022-12-09T11:22:36.397Z,12.80
2022-12-09T11:25:22.749Z,16.77
2022-12-09T11:27:54.712Z,13.57
2022-12-09T11:30:25.507Z,15.73
2022-12-09T11:33:01.105Z,16.33
2022-12-09T11:35:58.261Z,18.17
2022-12-09T11:38:37.802Z,12.70
2022-12-09T11:41:14.928Z,16.47
2022-12-09T11:43:47.536Z,17.60
2022-12-09T11:46:22.911Z,16.30
2022-12-09T11:48:56.435Z,16.97
2022-12-09T11:51:27.497Z,17.23
2022-12-09T11:54:03.389Z,16.47
2022-12-09T11:56:32.883Z,14.43
2022-12-09T11:59:05.444Z,15.63
2022-12-09T12:01:44.320Z,14.67
2022-12-09T12:04:15.614Z,15.03
2022-12-09T12:06:48.282Z,14.43
2022-12-09T12:09:22.681Z,14.70
2022-12-09T12:11:58.398Z,16.70
2022-12-09T12:14:30.597Z,26.00
2022-12-09T12:17:08.240Z,18.60
2022-12-09T12:19:39.056Z,16.87
2022-12-09T12:22:29.968Z,18.80
2022-12-09T12:25:20.783Z,18.90
2022-12-09T12:28:07.825Z,16.43
2022-12-09T12:30:45.853Z,15.73
2022-12-09T12:36:27.495Z,17.13
2022-12-09T12:39:11.257Z,16.33
2022-12-09T12:41:49.026Z,19.13
2022-12-09T12:44:57.299Z,19.87
2022-12-09T12:47:34.220Z,20.30
2022-12-09T12:50:21.441Z,21.50
2022-12-09T12:52:57.154Z,19.90
2022-12-09T12:55:42.297Z,17.60
2022-12-09T12:58:18.426Z,16.50
2022-12-09T13:01:04.681Z,18.47
2022-12-09T13:03:41.587Z,19.20
2022-12-09T13:06:14.452Z,19.27
2022-12-09T13:08:47.116Z,18.30
2022-12-09T13:11:20.751Z,19.00
2022-12-09T13:13:53.734Z,18.53
2022-12-09T13:16:27.441Z,24.53
2022-12-09T13:19:02.371Z,20.03
2022-12-09T13:21:30.393Z,19.23
2022-12-09T13:24:04.477Z,23.73
2022-12-09T13:26:41.378Z,21.63
2022-12-09T13:29:29.882Z,14.47
2022-12-09T13:32:04.251Z,17.40
2022-12-09T13:34:38.560Z,14.83
2022-12-09T13:37:26.738Z,18.10
2022-12-09T13:39:57.816Z,16.53
2022-12-09T13:42:56.256Z,20.47
2022-12-09T13:45:32.936Z,15.90
2022-12-09T13:48:05.283Z,19.40
2022-12-09T13:50:39.374Z,16.90
2022-12-09T13:53:25.250Z,21.60
2022-12-09T13:55:55.994Z,19.20
2022-12-09T13:58:48.007Z,19.33
2022-12-09T14:01:24.416Z,21.80
2022-12-09T14:04:13.050Z,16.10
2022-12-09T14:07:10.306Z,20.53
2022-12-09T14:09:47.208Z,18.13
2022-12-09T14:12:16.524Z,19.90
2022-12-09T14:14:53.689Z,16.93
2022-12-09T14:17:58.962Z,55.57
2022-12-09T14:20:32.914Z,24.67
2022-12-09T14:23:19.712Z,22.10
2022-12-09T14:26:11.569Z,17.30
2022-12-09T14:29:00.586Z,17.23
2022-12-09T14:31:57.794Z,19.33
2022-12-09T14:34:44.351Z,21.23
2022-12-09T14:37:45.636Z,21.57
2022-12-09T14:40:44.758Z,19.57
2022-12-09T14:43:28.877Z,23.67
2022-12-09T14:46:00.596Z,19.40
2022-12-09T14:48:33.492Z,21.70
2022-12-09T14:51:10.081Z,32.37
2022-12-09T14:53:39.377Z,30.03
2022-12-09T14:56:09.465Z,25.40
2022-12-09T14:58:38.277Z,22.73
2022-12-09T15:01:07.159Z,25.67
2022-12-09T15:03:43.011Z,23.63
2022-12-09T15:06:18.767Z,19.70
2022-12-09T15:08:46.939Z,26.70
2022-12-09T15:11:19.418Z,22.63
2022-12-09T15:13:50.206Z,24.17
2022-12-09T15:16:20.708Z,26.60
2022-12-09T15:18:49.585Z,27.83
2022-12-09T15:21:28.301Z,27.50
2022-12-09T15:23:56.752Z,71.13
2022-12-09T15:26:28.008Z,66.67
2022-12-09T15:28:57.508Z,35.90
2022-12-09T15:31:27.647Z,32.27
2022-12-09T15:33:57.326Z,27.17
2022-12-09T15:36:28.114Z,30.37
2022-12-09T15:39:00.056Z,30.93
2022-12-09T15:41:52.008Z,26.33
2022-12-09T15:44:22.420Z,27.67
2022-12-09T15:46:52.971Z,27.33
2022-12-09T15:49:24.816Z,26.50
2022-12-09T15:51:56.341Z,25.00
2022-12-09T15:54:28.226Z,30.20
2022-12-09T15:56:59.387Z,26.73
2022-12-09T15:59:31.292Z,29.40
2022-12-09T16:02:00.616Z,30.00
2022-12-09T16:04:32.808Z,29.43
2022-12-09T16:07:06.861Z,31.97
2022-12-09T16:09:34.858Z,26.07
2022-12-09T16:12:04.266Z,155.70
2022-12-09T16:14:43.473Z,101.07
2022-12-09T16:17:22.200Z,36.60
2022-12-09T16:19:50.213Z,29.33
2022-12-09T16:22:22.633Z,29.90
2022-12-09T16:27:51.032Z,29.73
2022-12-09T16:30:21.310Z,36.27
2022-12-09T16:32:51.477Z,41.70
2022-12-09T16:35:25.038Z,34.93
2022-12-09T16:38:19.293Z,29.13
2022-12-09T16:41:09.320Z,30.93
2022-12-09T16:43:54.599Z,30.57
2022-12-09T16:46:38.954Z,38.27
2022-12-09T16:49:08.182Z,32.90
2022-12-09T16:51:37.976Z,33.10
2022-12-09T16:54:19.776Z,34.93
2022-12-09T16:56:48.439Z,32.47
2022-12-09T16:59:17.702Z,29.63
2022-12-09T17:01:45.745Z,28.23
2022-12-09T17:04:16.089Z,30.90
2022-12-09T17:06:44.438Z,30.13
2022-12-09T17:09:13.528Z,29.07
2022-12-09T17:11:47.019Z,30.30
2022-12-09T17:14:18.117Z,35.17
2022-12-09T17:16:46.090Z,34.93
2022-12-09T17:19:14.073Z,36.67
2022-12-09T17:21:41.963Z,35.57
2022-12-09T17:24:12.337Z,34.30
2022-12-09T17:26:40.398Z,36.47
2022-12-09T17:29:08.368Z,29.77
2022-12-09T17:31:37.667Z,30.53
2022-12-09T17:34:05.586Z,37.23
2022-12-09T17:36:33.419Z,27.90
2022-12-09T17:39:02.257Z,31.13
2022-12-09T17:41:30.143Z,32.93
2022-12-09T17:43:58.122Z,36.60
2022-12-09T17:46:26.348Z,34.17
2022-12-09T17:48:55.793Z,30.60
2022-12-09T17:51:23.811Z,33.50
2022-12-09T17:53:51.736Z,33.57
2022-12-09T17:56:21.829Z,32.80
2022-12-09T17:58:56.405Z,32.77
2022-12-09T18:01:25.685Z,33.97
2022-12-09T18:04:02.856Z,31.63
2022-12-09T18:06:34.390Z,33.30
2022-12-09T18:09:02.928Z,27.87
2022-12-09T18:11:30.811Z,30.77
2022-12-09T18:13:59.159Z,31.60
2022-12-09T18:16:27.261Z,30.43
2022-12-09T18:18:55.415Z,37.03
2022-12-09T18:21:24.647Z,34.77
2022-12-09T18:23:52.535Z,36.60
2022-12-09T18:26:23.469Z,30.30
2022-12-09T18:28:56.296Z,30.70
2022-12-09T18:31:25.577Z,27.17
2022-12-09T18:33:54.675Z,33.03
2022-12-09T18:36:26.386Z,28.97
2022-12-09T18:38:55.033Z,35.87
2022-12-09T18:41:25.308Z,36.27
2022-12-09T18:43:56.754Z,33.47
2022-12-09T18:46:26.966Z,35.37
2022-12-09T18:48:59.053Z,29.17
2022-12-09T18:51:29.448Z,38.87
2022-12-09T18:53:58.160Z,36.13
2022-12-09T18:56:26.848Z,38.17
2022-12-09T18:59:10.993Z,33.53
2022-12-09T19:01:41.620Z,35.23
2022-12-09T19:04:13.752Z,37.40
2022-12-09T19:06:44.693Z,36.47
2022-12-09T19:09:14.358Z,37.97
2022-12-09T19:11:43.716Z,34.13
2022-12-09T19:14:12.087Z,35.20
2022-12-09T19:16:40.066Z,43.07
2022-12-09T19:19:10.509Z,35.67
2022-12-09T19:21:39.643Z,34.50
2022-12-09T19:24:12.384Z,32.43
2022-12-09T19:26:41.529Z,31.67
2022-12-09T19:29:10.429Z,32.37
2022-12-09T19:31:39.884Z,29.80
2022-12-09T19:34:13.470Z,34.43
2022-12-09T19:36:41.841Z,41.07
2022-12-09T19:39:12.348Z,40.90
2022-12-09T19:41:41.024Z,36.77
2022-12-09T19:44:10.651Z,41.37
2022-12-09T19:46:38.738Z,33.83
2022-12-09T19:49:06.801Z,36.73
2022-12-09T19:51:34.976Z,31.90
2022-12-09T19:54:03.259Z,37.67
2022-12-09T19:56:32.546Z,35.07
2022-12-09T19:59:00.926Z,35.93
2022-12-09T20:01:30.757Z,37.83
2022-12-09T20:04:13.552Z,119.27
2022-12-09T20:06:49.258Z,61.33
2022-12-09T20:09:24.190Z,43.73
2022-12-09T20:11:54.194Z,40.97
2022-12-09T20:14:22.096Z,42.40
2022-12-09T20:16:50.122Z,42.33
2022-12-09T20:19:19.676Z,37.87
2022-12-09T20:21:47.636Z,39.67
2022-12-09T20:24:15.738Z,41.23
2022-12-09T20:26:44.252Z,33.73
2022-12-09T20:29:13.923Z,33.20
2022-12-09T20:31:43.313Z,31.30
2022-12-09T20:34:14.846Z,27.67
2022-12-09T20:36:44.917Z,30.03
2022-12-09T20:39:15.263Z,32.13
2022-12-09T20:41:44.382Z,29.03
2022-12-09T20:44:15.130Z,24.80
2022-12-09T20:46:47.396Z,46.33
2022-12-09T20:49:15.292Z,56.53
2022-12-09T20:51:45.290Z,39.83
2022-12-09T20:54:13.914Z,32.83
2022-12-09T20:56:42.338Z,36.73
2022-12-09T20:59:11.579Z,42.13
2022-12-09T21:01:41.000Z,36.00
2022-12-09T21:04:09.517Z,32.00
2022-12-09T21:06:38.842Z,36.37
2022-12-09T21:09:11.495Z,32.00
2022-12-09T21:11:39.870Z,35.80
2022-12-09T21:14:08.841Z,39.33
2022-12-09T21:16:40.756Z,36.93
2022-12-09T21:19:12.628Z,31.00
2022-12-09T21:21:42.980Z,33.77
2022-12-09T21:24:13.652Z,35.50
2022-12-09T21:26:41.755Z,31.00
2022-12-09T21:29:11.622Z,35.47
2022-12-09T21:31:42.612Z,27.87
2022-12-09T21:34:13.275Z,36.20
2022-12-09T21:36:43.361Z,34.87
2022-12-09T21:39:13.399Z,35.57
2022-12-09T21:41:41.650Z,37.60
2022-12-09T21:44:14.031Z,37.63
2022-12-09T21:46:43.834Z,49.63
2022-12-09T21:49:12.753Z,35.83
2022-12-09T21:51:40.787Z,40.63
2022-12-09T21:54:08.680Z,34.53
2022-12-09T21:56:37.038Z,35.77
2022-12-09T21:59:06.359Z,33.07
2022-12-09T22:01:36.107Z,33.47
2022-12-09T22:04:07.016Z,33.20
2022-12-09T22:06:35.645Z,32.00
2022-12-09T22:09:05.156Z,33.47
2022-12-09T22:11:36.891Z,30.50
2022-12-09T22:14:05.728Z,31.93
2022-12-09T22:16:35.571Z,35.40
2022-12-09T22:19:06.020Z,34.37
2022-12-09T22:21:34.559Z,37.00
2022-12-09T22:24:04.665Z,61.47
2022-12-09T22:26:33.294Z,47.10
2022-12-09T22:29:02.224Z,35.97
2022-12-09T22:31:32.310Z,29.90
2022-12-09T22:34:02.841Z,36.67
2022-12-09T22:36:33.002Z,38.23
2022-12-09T22:39:01.215Z,31.97
2022-12-09T22:41:30.481Z,38.23
2022-12-09T22:43:58.927Z,31.33
2022-12-09T22:46:29.368Z,37.17
2022-12-09T22:48:58.945Z,36.93
2022-12-09T22:51:28.705Z,32.63
2022-12-09T22:53:58.891Z,28.63
2022-12-09T22:56:27.462Z,33.33
2022-12-09T22:58:55.976Z,32.87
2022-12-09T23:01:27.076Z,56.33
2022-12-09T23:03:56.101Z,87.60
2022-12-09T23:06:24.483Z,39.57
2022-12-09T23:08:52.453Z,36.03
2022-12-09T23:11:23.876Z,30.63
2022-12-09T23:13:52.378Z,27.73
2022-12-09T23:16:22.480Z,26.80
2022-12-09T23:18:51.310Z,27.00
2022-12-09T23:21:21.621Z,34.83
2022-12-09T23:23:52.184Z,25.83
2022-12-09T23:26:22.553Z,30.77
2022-12-09T23:28:52.520Z,31.23
2022-12-09T23:31:22.960Z,32.90
2022-12-09T23:33:52.231Z,26.80
2022-12-09T23:36:21.784Z,24.90
2022-12-09T23:38:50.014Z,28.90
2022-12-09T23:41:19.367Z,32.50
2022-12-09T23:43:50.703Z,28.80
2022-12-09T23:46:20.367Z,39.43
2022-12-09T23:48:49.838Z,33.10
2022-12-09T23:51:19.836Z,29.77
2022-12-09T23:53:50.003Z,33.57
2022-12-09T23:56:19.765Z,30.53
2022-12-09T23:58:53.756Z,36.37
